createdAt,value
2018-07-12T00:00:35.242Z,20.90
2018-07-12T00:01:39.464Z,20.45
2018-07-12T00:02:44.268Z,20.50
2018-07-12T00:03:49.380Z,21.45
2018-07-12T00:04:55.024Z,20.88
2018-07-12T00:05:59.737Z,19.35
2018-07-12T00:07:04.888Z,21.77
2018-07-12T00:08:09.578Z,20.35
2018-07-12T00:09:14.400Z,21.10
2018-07-12T00:10:19.024Z,20.77
2018-07-12T00:11:23.936Z,19.73
2018-07-12T00:12:28.141Z,20.80
2018-07-12T00:13:32.884Z,20.32
2018-07-12T00:14:37.601Z,19.55
2018-07-12T00:15:41.779Z,18.40
2018-07-12T00:16:46.623Z,18.23
2018-07-12T00:17:51.133Z,19.50
2018-07-12T00:18:55.443Z,17.10
2018-07-12T00:20:00.339Z,19.77
2018-07-12T00:21:04.850Z,19.02
2018-07-12T00:22:09.467Z,18.45
2018-07-12T00:23:14.090Z,18.60
2018-07-12T00:24:18.719Z,18.40
2018-07-12T00:25:23.921Z,18.32
2018-07-12T00:26:28.562Z,16.77
2018-07-12T00:27:33.279Z,18.37
2018-07-12T00:28:38.087Z,18.67
2018-07-12T00:29:42.818Z,19.27
2018-07-12T00:30:47.612Z,19.23
2018-07-12T00:31:52.869Z,19.65
2018-07-12T00:32:57.453Z,19.23
2018-07-12T00:34:01.820Z,20.37
2018-07-12T00:35:06.594Z,19.17
2018-07-12T00:36:11.634Z,20.97
2018-07-12T00:37:16.729Z,20.50
2018-07-12T00:38:21.651Z,21.30
2018-07-12T00:39:26.176Z,19.57
2018-07-12T00:40:30.806Z,18.82
2018-07-12T00:41:35.496Z,19.35
2018-07-12T00:42:39.905Z,20.30
2018-07-12T00:43:44.520Z,19.57
2018-07-12T00:44:49.236Z,19.52
2018-07-12T00:45:53.660Z,17.77
2018-07-12T00:46:57.977Z,20.25
2018-07-12T00:48:03.209Z,18.42
2018-07-12T00:49:07.708Z,16.95
2018-07-12T00:50:12.648Z,16.80
2018-07-12T00:51:17.563Z,17.90
2018-07-12T00:52:22.588Z,16.77
2018-07-12T00:53:27.202Z,17.75
2018-07-12T00:54:31.919Z,17.07
2018-07-12T00:55:36.815Z,19.17
2018-07-12T00:56:41.455Z,19.02
2018-07-12T00:57:46.061Z,17.52
2018-07-12T00:58:50.766Z,19.45
2018-07-12T00:59:55.505Z,17.15
2018-07-12T01:01:00.608Z,15.50
2018-07-12T01:02:05.117Z,16.35
2018-07-12T01:03:09.949Z,15.90
2018-07-12T01:04:14.963Z,16.12
2018-07-12T01:05:19.399Z,16.20
2018-07-12T01:06:24.295Z,15.13
2018-07-12T01:07:28.839Z,15.95
2018-07-12T01:08:33.526Z,14.95
2018-07-12T01:09:38.470Z,14.00
2018-07-12T01:10:41.309Z,15.25
2018-07-12T01:11:44.015Z,15.25
2018-07-12T01:12:46.662Z,15.00
2018-07-12T01:13:49.669Z,14.68
2018-07-12T01:14:52.383Z,15.40
2018-07-12T01:15:55.093Z,15.78
2018-07-12T01:16:57.829Z,14.58
2018-07-12T01:18:00.613Z,15.20
2018-07-12T01:19:03.413Z,14.13
2018-07-12T01:20:06.154Z,14.07
2018-07-12T01:21:08.821Z,13.62
2018-07-12T01:22:11.545Z,13.28
2018-07-12T01:23:14.244Z,12.75
2018-07-12T01:24:17.003Z,13.65
2018-07-12T01:25:19.703Z,13.43
2018-07-12T01:26:22.378Z,13.53
2018-07-12T01:27:25.074Z,12.37
2018-07-12T01:28:27.760Z,12.55
2018-07-12T01:29:30.480Z,13.10
2018-07-12T01:30:33.212Z,13.05
2018-07-12T01:31:35.887Z,12.85
2018-07-12T01:32:38.572Z,12.47
2018-07-12T01:33:41.242Z,11.85
2018-07-12T01:34:43.898Z,12.35
2018-07-12T01:35:46.624Z,12.68
2018-07-12T01:36:49.304Z,13.45
2018-07-12T01:37:51.964Z,12.93
2018-07-12T01:38:54.625Z,13.60
2018-07-12T01:39:57.370Z,12.73
2018-07-12T01:41:00.027Z,13.35
2018-07-12T01:42:02.700Z,12.98
2018-07-12T01:43:05.365Z,12.63
2018-07-12T01:44:08.034Z,14.00
2018-07-12T01:45:10.896Z,12.98
2018-07-12T01:46:13.589Z,12.60
2018-07-12T01:47:16.273Z,11.40
2018-07-12T01:48:18.968Z,12.60
2018-07-12T01:49:21.668Z,13.85
2018-07-12T01:50:24.369Z,13.30
2018-07-12T01:51:27.055Z,11.93
2018-07-12T01:52:29.726Z,11.48
2018-07-12T01:53:32.428Z,13.03
2018-07-12T01:54:35.085Z,12.43
2018-07-12T01:55:37.807Z,13.13
2018-07-12T01:56:40.520Z,13.93
2018-07-12T01:57:43.174Z,13.80
2018-07-12T01:58:45.886Z,13.85
2018-07-12T01:59:48.564Z,12.90
2018-07-12T02:00:51.328Z,13.25
2018-07-12T02:01:53.986Z,15.30
2018-07-12T02:02:56.670Z,13.10
2018-07-12T02:03:59.334Z,14.45
2018-07-12T02:05:02.263Z,14.30
2018-07-12T02:06:04.940Z,13.68
2018-07-12T02:07:07.587Z,14.68
2018-07-12T02:08:10.512Z,14.35
2018-07-12T02:09:13.370Z,13.83
2018-07-12T02:10:16.095Z,13.95
2018-07-12T02:11:18.773Z,13.30
2018-07-12T02:12:21.479Z,13.10
2018-07-12T02:13:24.180Z,11.95
2018-07-12T02:14:26.879Z,13.18
2018-07-12T02:15:29.703Z,12.82
2018-07-12T02:16:32.389Z,13.98
2018-07-12T02:17:35.103Z,14.25
2018-07-12T02:18:37.824Z,13.78
2018-07-12T02:19:40.504Z,13.90
2018-07-12T02:20:43.230Z,12.60
2018-07-12T02:21:46.012Z,12.40
2018-07-12T02:22:48.682Z,14.20
2018-07-12T02:23:51.399Z,14.83
2018-07-12T02:24:54.201Z,15.23
2018-07-12T02:25:56.929Z,16.05
2018-07-12T02:26:59.588Z,15.80
2018-07-12T02:28:02.324Z,16.55
2018-07-12T02:29:05.224Z,16.48
2018-07-12T02:30:07.907Z,16.17
2018-07-12T02:31:10.590Z,14.93
2018-07-12T02:32:13.289Z,16.95
2018-07-12T02:33:15.984Z,16.17
2018-07-12T02:34:18.729Z,16.70
2018-07-12T02:35:21.454Z,17.02
2018-07-12T02:36:24.114Z,18.52
2018-07-12T02:37:26.883Z,17.80
2018-07-12T02:38:29.575Z,19.15
2018-07-12T02:39:32.271Z,20.37
2018-07-12T02:40:34.951Z,18.52
2018-07-12T02:41:37.643Z,19.17
2018-07-12T02:42:40.399Z,18.67
2018-07-12T02:43:43.102Z,18.05
2018-07-12T02:44:45.797Z,16.45
2018-07-12T02:45:48.516Z,16.85
2018-07-12T02:46:51.186Z,17.05
2018-07-12T02:47:53.884Z,16.37
2018-07-12T02:48:56.614Z,15.23
2018-07-12T02:49:59.287Z,16.20
2018-07-12T02:51:01.999Z,15.43
2018-07-12T02:52:04.708Z,15.18
2018-07-12T02:53:07.429Z,15.50
2018-07-12T02:54:10.130Z,16.90
2018-07-12T02:55:12.831Z,16.10
2018-07-12T02:56:15.567Z,15.45
2018-07-12T02:57:18.240Z,15.55
2018-07-12T02:58:20.982Z,16.17
2018-07-12T02:59:23.695Z,15.50
2018-07-12T03:00:26.376Z,15.60
2018-07-12T03:01:29.103Z,15.10
2018-07-12T03:02:31.775Z,14.47
2018-07-12T03:03:34.458Z,15.28
2018-07-12T03:04:37.191Z,16.20
2018-07-12T03:05:39.895Z,15.58
2018-07-12T03:06:42.628Z,15.10
2018-07-12T03:07:45.325Z,15.70
2018-07-12T03:08:47.987Z,15.78
2018-07-12T03:09:50.675Z,15.25
2018-07-12T03:10:53.330Z,16.37
2018-07-12T03:11:56.064Z,15.80
2018-07-12T03:12:58.740Z,16.50
2018-07-12T03:14:01.446Z,18.10
2018-07-12T03:15:04.266Z,16.60
2018-07-12T03:16:06.953Z,16.40
2018-07-12T03:17:09.622Z,15.90
2018-07-12T03:18:12.342Z,15.35
2018-07-12T03:19:14.996Z,16.48
2018-07-12T03:20:17.709Z,16.37
2018-07-12T03:21:20.485Z,17.10
2018-07-12T03:22:23.166Z,17.17
2018-07-12T03:23:25.852Z,16.48
2018-07-12T03:24:28.532Z,16.05
2018-07-12T03:25:31.260Z,17.40
2018-07-12T03:26:33.934Z,15.90
2018-07-12T03:27:36.628Z,15.58
2018-07-12T03:28:39.330Z,16.40
2018-07-12T03:29:42.068Z,17.85
2018-07-12T03:30:44.797Z,16.65
2018-07-12T03:31:47.466Z,15.58
2018-07-12T03:32:50.204Z,16.60
2018-07-12T03:33:52.912Z,18.23
2018-07-12T03:34:55.607Z,17.20
2018-07-12T03:35:58.325Z,17.12
2018-07-12T03:37:01.094Z,15.32
2018-07-12T03:38:03.786Z,17.95
2018-07-12T03:39:06.485Z,17.62
2018-07-12T03:40:09.182Z,14.63
2018-07-12T03:41:11.893Z,16.65
2018-07-12T03:42:14.600Z,16.15
2018-07-12T03:43:17.476Z,16.30
2018-07-12T03:44:20.186Z,17.57
2018-07-12T03:45:22.863Z,15.35
2018-07-12T03:46:25.549Z,16.37
2018-07-12T03:47:28.245Z,16.50
2018-07-12T03:48:30.976Z,17.95
2018-07-12T03:49:33.650Z,17.50
2018-07-12T03:50:36.328Z,16.87
2018-07-12T03:51:39.024Z,17.55
2018-07-12T03:52:41.705Z,17.57
2018-07-12T03:53:44.406Z,16.15
2018-07-12T03:54:47.148Z,16.67
2018-07-12T03:55:49.812Z,18.27
2018-07-12T03:56:52.551Z,17.12
2018-07-12T03:57:55.243Z,17.12
2018-07-12T03:58:57.939Z,17.42
2018-07-12T04:00:00.630Z,18.32
2018-07-12T04:01:03.331Z,18.25
2018-07-12T04:02:06.073Z,19.92
2018-07-12T04:03:08.732Z,21.20
2018-07-12T04:04:11.449Z,21.65
2018-07-12T04:05:14.170Z,19.27
2018-07-12T04:06:16.854Z,18.42
2018-07-12T04:07:19.715Z,19.98
2018-07-12T04:08:22.437Z,20.52
2018-07-12T04:09:25.156Z,19.82
2018-07-12T04:10:27.850Z,18.85
2018-07-12T04:11:30.514Z,21.02
2018-07-12T04:12:33.236Z,20.27
2018-07-12T04:13:35.933Z,20.05
2018-07-12T04:14:38.651Z,21.15
2018-07-12T04:15:41.320Z,19.20
2018-07-12T04:16:44.039Z,19.82
2018-07-12T04:17:46.735Z,19.40
2018-07-12T04:18:49.433Z,19.35
2018-07-12T04:19:52.122Z,19.40
2018-07-12T04:20:54.808Z,20.52
2018-07-12T04:21:57.549Z,21.15
2018-07-12T04:23:00.226Z,18.82
2018-07-12T04:24:02.940Z,20.37
2018-07-12T04:25:05.633Z,20.02
2018-07-12T04:26:08.362Z,19.27
2018-07-12T04:27:11.242Z,17.92
2018-07-12T04:28:13.984Z,19.73
2018-07-12T04:29:16.725Z,18.52
2018-07-12T04:30:19.434Z,20.35
2018-07-12T04:31:22.130Z,20.05
2018-07-12T04:32:24.858Z,19.55
2018-07-12T04:33:27.567Z,19.15
2018-07-12T04:34:30.267Z,18.20
2018-07-12T04:35:32.972Z,18.12
2018-07-12T04:36:35.704Z,19.67
2018-07-12T04:37:38.403Z,18.45
2018-07-12T04:38:41.085Z,17.57
2018-07-12T04:39:44.212Z,19.05
2018-07-12T04:40:46.887Z,17.85
2018-07-12T04:41:49.628Z,20.50
2018-07-12T04:42:52.323Z,18.80
2018-07-12T04:43:55.034Z,17.95
2018-07-12T04:44:57.696Z,17.90
2018-07-12T04:46:00.449Z,17.37
2018-07-12T04:47:03.202Z,17.10
2018-07-12T04:48:05.937Z,18.95
2018-07-12T04:49:08.616Z,18.67
2018-07-12T04:50:11.334Z,19.40
2018-07-12T04:51:14.027Z,17.57
2018-07-12T04:52:16.719Z,18.07
2018-07-12T04:53:19.430Z,18.98
2018-07-12T04:54:22.252Z,18.75
2018-07-12T04:55:24.941Z,18.25
2018-07-12T04:56:27.673Z,18.95
2018-07-12T04:57:30.377Z,17.75
2018-07-12T04:58:33.158Z,19.12
2018-07-12T04:59:35.811Z,17.42
2018-07-12T05:00:38.509Z,19.37
2018-07-12T05:01:41.188Z,18.98
2018-07-12T05:02:43.899Z,18.50
2018-07-12T05:03:46.701Z,18.10
2018-07-12T05:04:49.374Z,19.00
2018-07-12T05:05:52.086Z,19.30
2018-07-12T05:06:54.793Z,19.05
2018-07-12T05:07:57.476Z,18.75
2018-07-12T05:09:00.221Z,19.10
2018-07-12T05:10:02.881Z,18.85
2018-07-12T05:11:05.571Z,19.12
2018-07-12T05:12:08.252Z,18.62
2018-07-12T05:13:11.100Z,18.45
2018-07-12T05:14:13.813Z,20.50
2018-07-12T05:15:16.531Z,19.17
2018-07-12T05:16:19.297Z,20.35
2018-07-12T05:17:22.093Z,18.62
2018-07-12T05:18:24.795Z,19.57
2018-07-12T05:19:27.494Z,19.27
2018-07-12T05:20:30.162Z,18.82
2018-07-12T05:21:32.853Z,19.80
2018-07-12T05:22:35.535Z,20.92
2018-07-12T05:23:38.217Z,18.50
2018-07-12T05:24:40.934Z,18.70
2018-07-12T05:25:43.684Z,19.05
2018-07-12T05:26:46.380Z,19.40
2018-07-12T05:27:49.085Z,18.62
2018-07-12T05:28:51.793Z,18.20
2018-07-12T05:29:54.492Z,17.40
2018-07-12T05:30:57.238Z,19.95
2018-07-12T05:31:59.930Z,19.65
2018-07-12T05:33:02.597Z,19.30
2018-07-12T05:34:05.289Z,18.23
2018-07-12T05:35:07.969Z,18.65
2018-07-12T05:36:14.912Z,19.05
2018-07-12T05:37:18.184Z,18.17
2018-07-12T05:38:21.498Z,17.75
2018-07-12T05:39:25.014Z,19.10
2018-07-12T05:40:28.250Z,20.32
2018-07-12T05:41:31.574Z,17.62
2018-07-12T05:42:34.818Z,19.48
2018-07-12T05:43:38.076Z,19.45
2018-07-12T05:44:41.330Z,18.70
2018-07-12T05:45:44.637Z,18.48
2018-07-12T05:46:48.207Z,19.30
2018-07-12T05:47:51.448Z,17.45
2018-07-12T05:48:54.766Z,18.62
2018-07-12T05:49:58.064Z,19.70
2018-07-12T05:51:01.336Z,19.25
2018-07-12T05:52:04.617Z,18.45
2018-07-12T05:53:07.909Z,19.17
2018-07-12T05:54:11.219Z,19.92
2018-07-12T05:55:14.516Z,19.17
2018-07-12T05:56:17.813Z,18.25
2018-07-12T05:57:21.136Z,19.92
2018-07-12T05:58:24.391Z,17.85
2018-07-12T05:59:27.684Z,19.23
2018-07-12T06:00:31.021Z,19.62
2018-07-12T06:01:39.691Z,17.73
2018-07-12T06:02:43.035Z,19.45
2018-07-12T06:03:46.323Z,19.67
2018-07-12T06:04:49.903Z,19.35
2018-07-12T06:05:53.167Z,18.50
2018-07-12T06:06:56.452Z,18.23
2018-07-12T06:07:59.811Z,18.25
2018-07-12T06:09:04.104Z,18.35
2018-07-12T06:10:07.445Z,19.85
2018-07-12T06:11:10.813Z,18.80
2018-07-12T06:12:14.064Z,19.55
2018-07-12T06:13:17.616Z,18.95
2018-07-12T06:14:20.939Z,18.20
2018-07-12T06:15:24.256Z,18.62
2018-07-12T06:16:27.530Z,18.42
2018-07-12T06:17:30.783Z,17.62
2018-07-12T06:18:34.042Z,18.90
2018-07-12T06:19:37.331Z,17.70
2018-07-12T06:20:40.580Z,17.45
2018-07-12T06:21:43.933Z,18.85
2018-07-12T06:22:47.268Z,18.10
2018-07-12T06:23:50.720Z,18.23
2018-07-12T06:24:54.099Z,17.57
2018-07-12T06:25:57.373Z,17.45
2018-07-12T06:27:00.687Z,17.17
2018-07-12T06:28:03.993Z,17.77
2018-07-12T06:29:07.245Z,18.15
2018-07-12T06:30:10.620Z,16.57
2018-07-12T06:31:13.988Z,16.65
2018-07-12T06:32:17.301Z,17.50
2018-07-12T06:33:20.577Z,16.57
2018-07-12T06:34:23.833Z,17.37
2018-07-12T06:35:27.149Z,16.50
2018-07-12T06:36:30.420Z,18.95
2018-07-12T06:37:33.725Z,18.35
2018-07-12T06:38:36.994Z,18.17
2018-07-12T06:39:40.342Z,17.55
2018-07-12T06:40:43.645Z,18.00
2018-07-12T06:41:46.942Z,16.97
2018-07-12T06:42:50.268Z,17.30
2018-07-12T06:43:53.523Z,15.10
2018-07-12T06:44:56.830Z,17.05
2018-07-12T06:46:00.179Z,16.48
2018-07-12T06:47:03.452Z,17.50
2018-07-12T06:48:06.729Z,16.35
2018-07-12T06:49:10.049Z,16.55
2018-07-12T06:50:13.365Z,15.03
2018-07-12T06:51:16.605Z,16.57
2018-07-12T06:52:19.899Z,16.20
2018-07-12T06:53:23.487Z,17.15
2018-07-12T06:54:26.790Z,14.83
2018-07-12T06:55:30.069Z,14.95
2018-07-12T06:56:33.369Z,16.73
2018-07-12T06:57:36.680Z,17.00
2018-07-12T06:58:39.951Z,17.15
2018-07-12T06:59:43.209Z,16.52
2018-07-12T07:00:46.438Z,16.42
2018-07-12T07:01:49.744Z,15.45
2018-07-12T07:02:53.016Z,14.50
2018-07-12T07:03:56.559Z,14.50
2018-07-12T07:04:59.831Z,15.38
2018-07-12T07:06:03.104Z,16.40
2018-07-12T07:07:06.554Z,16.17
2018-07-12T07:08:09.840Z,15.20
2018-07-12T07:09:13.115Z,15.45
2018-07-12T07:10:16.402Z,14.55
2018-07-12T07:11:19.951Z,14.90
2018-07-12T07:12:23.308Z,13.98
2018-07-12T07:13:26.613Z,14.25
2018-07-12T07:14:29.976Z,14.33
2018-07-12T07:15:33.261Z,14.45
2018-07-12T07:16:36.610Z,13.90
2018-07-12T07:17:39.946Z,14.47
2018-07-12T07:18:43.219Z,14.60
2018-07-12T07:19:46.474Z,13.58
2018-07-12T07:20:50.096Z,13.93
2018-07-12T07:21:53.359Z,13.58
2018-07-12T07:22:56.653Z,13.28
2018-07-12T07:24:00.009Z,12.63
2018-07-12T07:25:03.330Z,12.60
2018-07-12T07:26:06.613Z,13.68
2018-07-12T07:27:09.883Z,11.83
2018-07-12T07:28:13.309Z,13.50
2018-07-12T07:29:16.608Z,11.65
2018-07-12T07:30:19.915Z,12.37
2018-07-12T07:31:23.208Z,11.40
2018-07-12T07:32:26.524Z,11.55
2018-07-12T07:33:29.846Z,11.57
2018-07-12T07:34:33.136Z,10.83
2018-07-12T07:35:36.466Z,11.73
2018-07-12T07:36:39.789Z,11.10
2018-07-12T07:37:43.050Z,12.00
2018-07-12T07:38:46.349Z,11.50
2018-07-12T07:39:49.600Z,12.70
2018-07-12T07:40:52.860Z,11.83
2018-07-12T07:41:56.186Z,12.20
2018-07-12T07:42:59.499Z,13.05
2018-07-12T07:44:02.921Z,13.70
2018-07-12T07:45:06.401Z,11.50
2018-07-12T07:46:09.752Z,12.40
2018-07-12T07:47:13.033Z,13.33
2018-07-12T07:48:16.322Z,11.93
2018-07-12T07:49:19.629Z,12.10
2018-07-12T07:50:22.964Z,13.13
2018-07-12T07:51:26.204Z,13.37
2018-07-12T07:52:29.560Z,12.67
2018-07-12T07:53:32.835Z,13.17
2018-07-12T07:54:36.179Z,12.23
2018-07-12T07:55:39.479Z,13.07
2018-07-12T07:56:42.747Z,13.40
2018-07-12T07:57:46.000Z,11.57
2018-07-12T07:58:49.325Z,12.90
2018-07-12T07:59:52.573Z,13.70
2018-07-12T08:00:55.835Z,12.50
2018-07-12T08:01:59.119Z,11.83
2018-07-12T08:03:02.361Z,13.43
2018-07-12T08:04:05.638Z,12.10
2018-07-12T08:05:08.890Z,12.20
2018-07-12T08:06:12.195Z,13.07
2018-07-12T08:07:15.527Z,12.93
2018-07-12T08:08:18.805Z,12.70
2018-07-12T08:09:22.196Z,11.90
2018-07-12T08:10:25.444Z,13.33
2018-07-12T08:11:28.758Z,12.20
2018-07-12T08:12:32.082Z,12.47
2018-07-12T08:13:35.454Z,12.37
2018-07-12T08:14:38.744Z,12.10
2018-07-12T08:15:42.040Z,12.13
2018-07-12T08:16:45.321Z,12.20
2018-07-12T08:17:48.610Z,12.90
2018-07-12T08:18:51.860Z,11.80
2018-07-12T08:19:55.100Z,12.47
2018-07-12T08:20:58.369Z,12.60
2018-07-12T08:22:02.978Z,11.90
2018-07-12T08:23:06.357Z,11.50
2018-07-12T08:24:09.651Z,11.77
2018-07-12T08:25:12.981Z,11.27
2018-07-12T08:26:16.235Z,11.80
2018-07-12T08:27:19.494Z,11.70
2018-07-12T08:28:24.036Z,12.37
2018-07-12T08:29:27.343Z,12.33
2018-07-12T08:30:30.678Z,11.63
2018-07-12T08:31:34.151Z,12.10
2018-07-12T08:32:37.435Z,12.90
2018-07-12T08:33:40.711Z,12.87
2018-07-12T08:34:43.961Z,12.30
2018-07-12T08:35:47.390Z,12.53
2018-07-12T08:36:50.741Z,11.93
2018-07-12T08:37:54.013Z,12.37
2018-07-12T08:38:57.271Z,11.57
2018-07-12T08:40:00.574Z,12.07
2018-07-12T08:41:03.915Z,11.70
2018-07-12T08:42:07.212Z,10.77
2018-07-12T08:43:11.249Z,9.23
2018-07-12T08:44:14.513Z,10.50
2018-07-12T08:45:17.879Z,9.93
2018-07-12T08:46:21.200Z,9.60
2018-07-12T08:47:24.439Z,9.00
2018-07-12T08:48:27.767Z,8.50
2018-07-12T08:49:31.007Z,9.37
2018-07-12T08:50:34.373Z,9.00
2018-07-12T08:51:37.693Z,8.60
2018-07-12T08:52:40.958Z,9.63
2018-07-12T08:53:44.200Z,8.70
2018-07-12T08:54:47.513Z,8.17
2018-07-12T08:55:50.817Z,9.10
2018-07-12T08:56:54.114Z,7.50
2018-07-12T08:57:57.387Z,9.00
2018-07-12T08:59:00.795Z,8.30
2018-07-12T09:00:04.398Z,9.70
2018-07-12T09:01:07.630Z,8.23
2018-07-12T09:02:10.868Z,9.87
2018-07-12T09:03:14.193Z,8.50
2018-07-12T09:04:17.481Z,8.70
2018-07-12T09:05:20.805Z,8.37
2018-07-12T09:06:24.100Z,9.60
2018-07-12T09:07:27.547Z,8.43
2018-07-12T09:08:30.866Z,9.03
2018-07-12T09:09:34.177Z,8.80
2018-07-12T09:10:37.545Z,9.40
2018-07-12T09:11:40.864Z,10.30
2018-07-12T09:12:44.195Z,10.60
2018-07-12T09:13:47.564Z,11.30
2018-07-12T09:14:50.811Z,13.33
2018-07-12T09:15:54.142Z,11.70
2018-07-12T09:16:57.408Z,11.77
2018-07-12T09:18:00.676Z,12.43
2018-07-12T09:19:04.023Z,12.13
2018-07-12T09:20:07.420Z,12.47
2018-07-12T09:21:10.679Z,14.30
2018-07-12T09:22:13.982Z,13.37
2018-07-12T09:23:17.384Z,13.30
2018-07-12T09:24:20.663Z,14.30
2018-07-12T09:25:23.995Z,13.70
2018-07-12T09:26:27.284Z,12.97
2018-07-12T09:27:30.557Z,14.80
2018-07-12T09:28:40.479Z,12.63
2018-07-12T09:29:43.803Z,14.80
2018-07-12T09:30:47.169Z,13.57
2018-07-12T09:31:50.454Z,12.97
2018-07-12T09:32:53.751Z,12.47
2018-07-12T09:33:57.152Z,11.67
2018-07-12T09:35:00.453Z,12.60
2018-07-12T09:36:03.764Z,11.37
2018-07-12T09:37:07.053Z,11.87
2018-07-12T09:38:15.824Z,11.43
2018-07-12T09:39:19.127Z,11.57
2018-07-12T09:40:22.455Z,11.90
2018-07-12T09:41:25.795Z,12.00
2018-07-12T09:42:29.099Z,12.27
2018-07-12T09:43:32.395Z,12.40
2018-07-12T09:44:35.686Z,12.30
2018-07-12T09:45:39.006Z,10.90
2018-07-12T09:46:42.330Z,12.60
2018-07-12T09:47:45.606Z,12.17
2018-07-12T09:48:50.053Z,12.63
2018-07-12T09:49:53.302Z,12.53
2018-07-12T09:50:56.574Z,12.90
2018-07-12T09:51:59.899Z,13.43
2018-07-12T09:53:04.849Z,12.53
2018-07-12T09:54:08.191Z,12.17
2018-07-12T09:55:11.448Z,11.27
2018-07-12T09:56:14.824Z,12.27
2018-07-12T09:57:23.476Z,12.30
2018-07-12T09:58:28.759Z,10.90
2018-07-12T09:59:32.024Z,11.80
2018-07-12T10:00:40.653Z,11.70
2018-07-12T10:01:49.206Z,11.13
2018-07-12T10:02:57.740Z,11.70
2018-07-12T10:04:01.049Z,10.43
2018-07-12T10:05:04.389Z,11.43
2018-07-12T10:06:13.032Z,11.27
2018-07-12T10:07:21.675Z,10.90
2018-07-12T10:08:30.310Z,11.30
2018-07-12T10:09:38.814Z,10.80
2018-07-12T10:10:47.578Z,12.10
2018-07-12T10:11:56.173Z,10.90
2018-07-12T10:13:04.761Z,12.60
2018-07-12T10:14:13.335Z,11.53
2018-07-12T10:15:21.886Z,13.37
2018-07-12T10:16:30.430Z,13.30
2018-07-12T10:17:48.993Z,13.20
2018-07-12T10:18:52.292Z,14.80
2018-07-12T10:19:55.567Z,12.90
2018-07-12T10:20:59.340Z,13.10
2018-07-12T10:22:02.633Z,12.77
2018-07-12T10:23:05.982Z,12.80
2018-07-12T10:24:09.618Z,12.30
2018-07-12T10:25:13.259Z,11.73
2018-07-12T10:26:17.007Z,12.80
2018-07-12T10:27:20.700Z,10.70
2018-07-12T10:28:24.339Z,11.40
2018-07-12T10:29:28.028Z,11.47
2018-07-12T10:30:31.707Z,12.23
2018-07-12T10:31:35.313Z,13.03
2018-07-12T10:32:38.961Z,11.00
2018-07-12T10:33:42.637Z,10.90
2018-07-12T10:34:46.414Z,10.90
2018-07-12T10:35:50.245Z,10.70
2018-07-12T10:36:53.921Z,10.33
2018-07-12T10:37:57.548Z,11.70
2018-07-12T10:39:01.198Z,11.40
2018-07-12T10:40:04.985Z,11.93
2018-07-12T10:41:08.685Z,13.37
2018-07-12T10:42:12.390Z,13.10
2018-07-12T10:43:16.000Z,13.57
2018-07-12T10:44:19.574Z,12.97
2018-07-12T10:45:23.261Z,11.80
2018-07-12T10:46:26.959Z,11.90
2018-07-12T10:47:30.632Z,12.13
2018-07-12T10:48:34.266Z,11.40
2018-07-12T10:49:37.929Z,11.27
2018-07-12T10:50:41.604Z,11.40
2018-07-12T10:51:45.296Z,10.90
2018-07-12T10:52:48.934Z,11.00
2018-07-12T10:53:52.533Z,10.60
2018-07-12T10:54:56.166Z,10.47
2018-07-12T10:55:59.867Z,10.07
2018-07-12T10:57:03.447Z,8.60
2018-07-12T10:58:11.418Z,9.17
2018-07-12T10:59:18.717Z,8.97
2018-07-12T11:00:26.201Z,8.77
2018-07-12T11:01:33.381Z,8.00
2018-07-12T11:02:41.267Z,7.93
2018-07-12T11:03:47.714Z,7.87
2018-07-12T11:04:55.909Z,7.53
2018-07-12T11:06:04.316Z,7.03
2018-07-12T11:07:13.026Z,7.77
2018-07-12T11:08:21.460Z,7.00
2018-07-12T11:09:31.254Z,7.63
2018-07-12T11:10:38.541Z,7.10
2018-07-12T11:11:46.563Z,8.40
2018-07-12T11:13:03.949Z,6.83
2018-07-12T11:14:12.352Z,7.27
2018-07-12T11:15:20.773Z,7.40
2018-07-12T11:16:29.083Z,7.40
2018-07-12T11:17:38.191Z,7.67
2018-07-12T11:18:46.785Z,8.10
2018-07-12T11:19:55.089Z,7.53
2018-07-12T11:21:03.833Z,9.10
2018-07-12T11:22:12.405Z,8.70
2018-07-12T11:23:19.504Z,9.20
2018-07-12T11:24:27.506Z,8.10
2018-07-12T11:25:35.696Z,8.77
2018-07-12T11:26:43.895Z,9.03
2018-07-12T11:27:51.273Z,8.00
2018-07-12T11:28:59.171Z,8.47
2018-07-12T11:30:06.825Z,8.30
2018-07-12T11:31:14.230Z,6.90
2018-07-12T11:32:21.276Z,6.80
2018-07-12T11:33:48.726Z,6.80
2018-07-12T11:34:57.068Z,7.30
2018-07-12T11:36:04.541Z,6.77
2018-07-12T11:37:13.551Z,5.60
2018-07-12T11:38:21.547Z,6.30
2018-07-12T11:39:28.520Z,5.23
2018-07-12T11:40:36.396Z,6.33
2018-07-12T11:41:43.714Z,5.67
2018-07-12T11:42:52.164Z,5.23
2018-07-12T11:44:01.521Z,6.00
2018-07-12T11:45:09.512Z,6.70
2018-07-12T11:46:17.487Z,6.33
2018-07-12T11:47:25.574Z,7.00
2018-07-12T11:48:34.822Z,6.47
2018-07-12T11:49:42.511Z,6.70
2018-07-12T11:50:50.700Z,6.30
2018-07-12T11:51:59.192Z,6.30
2018-07-12T11:53:06.784Z,5.63
2018-07-12T11:54:14.973Z,6.30
2018-07-12T11:55:23.065Z,6.40
2018-07-12T11:56:31.981Z,5.87
2018-07-12T11:57:40.787Z,6.40
2018-07-12T11:58:49.353Z,6.47
2018-07-12T11:59:56.778Z,6.27
2018-07-12T12:01:04.771Z,5.33
2018-07-12T12:02:12.494Z,6.57
2018-07-12T12:03:20.055Z,5.70
2018-07-12T12:04:28.651Z,4.90
2018-07-12T12:05:32.538Z,5.00
2018-07-12T12:06:35.808Z,5.40
2018-07-12T12:07:39.467Z,5.70
2018-07-12T12:08:43.107Z,5.40
2018-07-12T12:09:46.739Z,6.00
2018-07-12T12:10:50.364Z,5.70
2018-07-12T12:11:53.953Z,5.80
2018-07-12T12:12:57.523Z,5.70
2018-07-12T12:14:01.212Z,6.33
2018-07-12T12:15:04.900Z,6.20
2018-07-12T12:16:08.518Z,5.73
2018-07-12T12:17:12.205Z,5.30
2018-07-12T12:18:15.915Z,6.00
2018-07-12T12:19:19.591Z,6.00
2018-07-12T12:20:23.267Z,6.13
2018-07-12T12:21:26.950Z,6.30
2018-07-12T12:22:30.565Z,6.30
2018-07-12T12:23:34.182Z,6.00
2018-07-12T12:24:37.467Z,6.13
2018-07-12T12:25:41.124Z,6.07
2018-07-12T12:26:44.751Z,6.17
2018-07-12T12:27:48.342Z,6.47
2018-07-12T12:28:51.972Z,6.17
2018-07-12T12:29:55.592Z,5.90
2018-07-12T12:30:59.294Z,5.73
2018-07-12T12:32:02.853Z,7.07
2018-07-12T12:33:07.061Z,7.40
2018-07-12T12:34:10.719Z,6.47
2018-07-12T12:35:14.340Z,6.00
2018-07-12T12:36:17.977Z,6.40
2018-07-12T12:37:21.635Z,5.63
2018-07-12T12:38:25.263Z,6.30
2018-07-12T12:39:28.842Z,6.13
2018-07-12T12:40:32.467Z,6.00
2018-07-12T12:41:36.266Z,5.70
2018-07-12T12:42:39.989Z,5.90
2018-07-12T12:43:43.867Z,6.30
2018-07-12T12:44:47.151Z,6.10
2018-07-12T12:45:50.780Z,5.67
2018-07-12T12:46:54.453Z,6.67
2018-07-12T12:47:58.066Z,6.23
2018-07-12T12:49:01.683Z,7.00
2018-07-12T12:50:05.557Z,6.17
2018-07-12T12:51:09.149Z,6.47
2018-07-12T12:52:12.797Z,5.47
2018-07-12T12:53:17.320Z,5.90
2018-07-12T12:54:20.984Z,6.30
2018-07-12T12:55:24.643Z,6.03
2018-07-12T12:56:28.210Z,6.40
2018-07-12T12:57:32.119Z,6.47
2018-07-12T12:58:38.963Z,6.30
2018-07-12T12:59:46.740Z,6.60
2018-07-12T13:00:53.913Z,6.80
2018-07-12T13:02:02.054Z,7.57
2018-07-12T13:03:09.393Z,7.83
2018-07-12T13:04:17.304Z,7.57
2018-07-12T13:05:24.397Z,7.53
2018-07-12T13:06:31.936Z,8.57
2018-07-12T13:07:40.167Z,9.23
2018-07-12T13:08:47.857Z,8.40
2018-07-12T13:09:58.888Z,7.60
2018-07-12T13:11:07.087Z,7.60
2018-07-12T13:12:14.673Z,6.53
2018-07-12T13:13:22.198Z,6.23
2018-07-12T13:14:30.092Z,7.07
2018-07-12T13:15:37.938Z,6.00
2018-07-12T13:16:45.462Z,6.13
2018-07-12T13:17:52.617Z,5.40
2018-07-12T13:19:00.511Z,6.50
2018-07-12T13:20:08.009Z,5.13
2018-07-12T13:21:14.570Z,5.60
2018-07-12T13:22:22.520Z,5.00
2018-07-12T13:23:30.307Z,5.30
2018-07-12T13:24:37.923Z,4.90
2018-07-12T13:25:45.474Z,5.37
2018-07-12T13:26:52.576Z,5.13
2018-07-12T13:28:00.442Z,5.23
2018-07-12T13:29:07.734Z,4.90
2018-07-12T13:30:14.584Z,4.10
2018-07-12T13:31:22.929Z,4.97
2018-07-12T13:32:30.776Z,5.10
2018-07-12T13:33:38.258Z,4.27
2018-07-12T13:34:46.587Z,4.60
2018-07-12T13:35:54.577Z,4.33
2018-07-12T13:37:02.854Z,3.83
2018-07-12T13:38:09.953Z,4.20
2018-07-12T13:39:17.957Z,4.30
2018-07-12T13:40:25.619Z,4.30
2018-07-12T13:41:33.075Z,4.57
2018-07-12T13:42:41.005Z,4.60
2018-07-12T13:43:48.896Z,4.40
2018-07-12T13:44:57.716Z,4.90
2018-07-12T13:46:04.892Z,7.67
2018-07-12T13:47:13.184Z,6.53
2018-07-12T13:48:21.495Z,5.87
2018-07-12T13:49:29.079Z,5.70
2018-07-12T13:50:36.963Z,6.00
2018-07-12T13:51:44.860Z,6.40